Time;durP1;ratioP1;P1;durP2;ratioP2;P2;SDS_P1;SDS_P2;PMS_P1;PMS_P2;Temp;Humidity;BMP_temperature;BMP_pressure;BME280_temperature;BME280_humidity;BME280_pressure;Samples;Min_cycle;Max_cycle;Signal;HPM_P1;HPM_P2
2023/05/09 00:00:05;;;;;;;0.20;0.20;;;;;;;26.61;40.94;99413.09;1883625;75;28024;-57
2023/05/09 00:02:53;;;;;;;0.30;0.30;;;;;;;26.61;41.00;99413.09;1886784;75;28068;-57
2023/05/09 00:05:41;;;;;;;0.20;0.20;;;;;;;26.60;40.94;99419.72;1890610;75;28096;-57
2023/05/09 00:08:30;;;;;;;0.33;0.33;;;;;;;26.58;40.84;99412.27;1881784;75;28099;-57
2023/05/09 00:11:18;;;;;;;2.00;0.30;;;;;;;26.58;40.92;99412.27;1905637;74;28181;-57
2023/05/09 00:14:07;;;;;;;0.20;0.20;;;;;;;26.55;40.83;99410.87;1889036;75;28148;-57
2023/05/09 00:16:58;;;;;;;0.40;0.40;;;;;;;26.55;40.93;99401.22;1894167;74;28180;-56
2023/05/09 00:19:46;;;;;;;0.15;0.15;;;;;;;26.55;40.80;99401.77;1882319;75;28068;-55
2023/05/09 00:22:35;;;;;;;0.10;0.10;;;;;;;26.57;40.79;99405.08;1895805;74;28043;-56
2023/05/09 00:25:23;;;;;;;0.20;0.20;;;;;;;26.53;40.83;99396.53;1895941;74;28161;-56
2023/05/09 00:28:12;;;;;;;1.00;0.20;;;;;;;26.56;40.86;99401.48;1894033;75;28179;-57
2023/05/09 00:31:00;;;;;;;0.47;0.47;;;;;;;26.54;40.73;99404.22;1887133;75;28070;-57
2023/05/09 00:33:49;;;;;;;0.20;0.20;;;;;;;26.54;40.75;99405.59;1901036;74;28106;-55
2023/05/09 00:36:37;;;;;;;0.20;0.20;;;;;;;26.55;40.85;99404.52;1884316;75;28177;-57
2023/05/09 00:39:26;;;;;;;0.20;0.20;;;;;;;26.57;40.87;99406.46;1889391;75;28048;-58
2023/05/09 00:42:15;;;;;;;0.30;0.30;;;;;;;26.53;40.75;99398.45;1884669;75;35298;-57
2023/05/09 00:45:04;;;;;;;1.60;0.20;;;;;;;26.55;40.83;99393.50;1868989;76;28210;-55
2023/05/09 00:47:52;;;;;;;1.10;0.10;;;;;;;26.53;40.74;99394.31;1842835;76;28254;-57
2023/05/09 00:50:41;;;;;;;0.28;0.20;;;;;;;26.55;40.81;99399.84;1882935;75;28256;-55
2023/05/09 00:53:30;;;;;;;0.20;0.20;;;;;;;26.53;40.80;99397.06;1896402;74;28047;-57
2023/05/09 00:56:20;;;;;;;0.23;0.23;;;;;;;26.52;40.83;99390.72;1885016;75;28087;-56
2023/05/09 00:59:09;;;;;;;0.17;0.17;;;;;;;26.52;40.75;99381.08;1896163;75;28154;-56
2023/05/09 01:01:58;;;;;;;0.10;0.10;;;;;;;26.54;40.91;99380.80;1910568;74;28087;-57
2023/05/09 01:04:47;;;;;;;0.10;0.10;;;;;;;26.54;40.83;99365.11;1868820;76;28111;-57
2023/05/09 01:07:45;;;;;;;1.10;0.20;;;;;;;26.53;40.73;99364.84;1891822;75;28469;-58
2023/05/09 01:10:57;;;;;;;0.25;0.25;;;;;;;26.55;40.92;99365.41;1880927;74;28076;-56
2023/05/09 01:13:48;;;;;;;0.20;0.20;;;;;;;26.54;40.83;99378.05;1888462;75;28044;-56
2023/05/09 01:16:39;;;;;;;0.20;0.20;;;;;;;26.47;40.88;99365.88;1901036;75;28148;-56
2023/05/09 01:19:39;;;;;;;0.20;0.20;;;;;;;26.48;40.83;99369.47;1897309;74;28150;-58
2023/05/09 01:22:37;;;;;;;0.40;0.40;;;;;;;26.48;40.81;99356.54;1891073;74;28043;-57
2023/05/09 01:26:02;;;;;;;0.60;0.20;;;;;;;26.47;40.85;99356.23;1888898;74;28154;-55
2023/05/09 01:29:02;;;;;;;0.20;0.20;;;;;;;26.47;40.80;99350.73;1876626;74;28182;-56
2023/05/09 01:31:51;;;;;;;0.70;0.20;;;;;;;26.45;40.96;99341.06;1882063;74;28158;-54
2023/05/09 01:34:43;;;;;;;0.10;0.10;;;;;;;26.40;40.92;99336.89;1895110;74;28099;-57
2023/05/09 01:37:34;;;;;;;0.30;0.20;;;;;;;26.45;40.91;99346.03;1888705;75;28056;-57
2023/05/09 01:40:25;;;;;;;0.17;0.17;;;;;;;26.47;40.88;99352.11;1882512;75;28130;-55
2023/05/09 01:43:17;;;;;;;0.10;0.10;;;;;;;26.46;40.74;99344.13;1887773;74;28080;-55
2023/05/09 01:46:07;;;;;;;0.80;0.20;;;;;;;26.44;40.79;99344.36;1880315;75;28052;-56
2023/05/09 01:48:56;;;;;;;0.28;0.28;;;;;;;26.51;40.88;99344.16;1899408;74;28139;-57
2023/05/09 01:51:47;;;;;;;0.10;0.10;;;;;;;26.50;40.80;99343.87;1892221;74;28153;-57
2023/05/09 01:54:37;;;;;;;0.20;0.20;;;;;;;26.50;40.86;99343.87;1888350;74;28095;-55
2023/05/09 01:57:27;;;;;;;0.20;0.20;;;;;;;26.47;40.71;99339.71;1884265;74;28464;-56
2023/05/09 02:00:18;;;;;;;0.17;0.17;;;;;;;26.48;40.71;99337.80;1906606;74;28198;-58
2023/05/09 02:03:08;;;;;;;0.15;0.15;;;;;;;26.53;40.68;99344.73;1885955;75;28091;-54
2023/05/09 02:05:57;;;;;;;0.10;0.10;;;;;;;26.49;40.60;99340.84;1844680;76;28259;-57
2023/05/09 02:08:48;;;;;;;0.10;0.10;;;;;;;26.51;40.74;99332.57;1888157;75;28114;-57
2023/05/09 02:11:36;;;;;;;0.20;0.20;;;;;;;26.54;40.67;99333.43;1873945;75;28036;-57
2023/05/09 02:14:25;;;;;;;0.20;0.20;;;;;;;26.50;40.62;99328.72;1887102;75;28035;-56
2023/05/09 02:17:15;;;;;;;0.20;0.20;;;;;;;26.52;40.56;99337.54;1890828;74;28182;-57
2023/05/09 02:20:04;;;;;;;0.30;0.30;;;;;;;26.51;40.60;99336.70;1904018;74;28055;-57
2023/05/09 02:22:52;;;;;;;0.23;0.23;;;;;;;26.49;40.50;99336.14;1885572;74;28142;-57
2023/05/09 02:25:42;;;;;;;0.10;0.10;;;;;;;26.49;40.63;99329.25;1878342;75;28126;-57
2023/05/09 02:28:31;;;;;;;0.40;0.35;;;;;;;26.52;40.61;99328.73;1875644;75;28128;-56
2023/05/09 02:31:23;;;;;;;0.20;0.20;;;;;;;26.53;40.68;99333.70;1881294;74;28130;-57
2023/05/09 02:34:13;;;;;;;0.17;0.17;;;;;;;26.50;40.64;99336.44;1894854;74;28150;-57
2023/05/09 02:37:02;;;;;;;0.13;0.13;;;;;;;26.49;40.66;99337.52;1885674;75;28019;-56
2023/05/09 02:39:51;;;;;;;0.28;0.20;;;;;;;26.50;40.54;99346.63;1877571;75;30042;-56
2023/05/09 02:42:39;;;;;;;0.10;0.10;;;;;;;26.50;40.64;99342.48;1886271;75;28111;-58
2023/05/09 02:45:28;;;;;;;0.10;0.10;;;;;;;26.51;40.48;99339.46;1874284;75;28221;-57
2023/05/09 02:48:16;;;;;;;0.20;0.20;;;;;;;26.51;40.49;99344.16;1898993;74;28102;-57
2023/05/09 02:51:05;;;;;;;0.13;0.13;;;;;;;26.52;40.59;99347.19;1832539;77;28213;-57
2023/05/09 02:53:53;;;;;;;0.27;0.27;;;;;;;26.52;40.51;99335.63;1836316;77;28206;-57
2023/05/09 02:56:42;;;;;;;0.20;0.20;;;;;;;26.51;40.47;99336.70;1799027;77;28282;-56
2023/05/09 02:59:31;;;;;;;0.20;0.20;;;;;;;26.50;40.41;99342.48;1808151;78;31178;-58
2023/05/09 03:02:22;;;;;;;0.20;0.20;;;;;;;26.50;40.39;99340.57;1815146;77;28137;-57
2023/05/09 03:05:11;;;;;;;0.20;0.20;;;;;;;26.50;40.49;99342.48;1803942;78;28241;-54
2023/05/09 03:08:00;;;;;;;1.10;0.20;;;;;;;26.49;40.46;99342.22;1839941;76;28250;-56
2023/05/09 03:10:48;;;;;;;0.60;0.20;;;;;;;26.50;40.46;99335.60;1814448;78;28368;-56
2023/05/09 03:13:37;;;;;;;0.20;0.20;;;;;;;26.47;40.51;99334.74;1834918;77;38582;-55
2023/05/09 03:16:25;;;;;;;0.08;0.08;;;;;;;26.47;40.42;99331.98;1804038;78;28298;-56
2023/05/09 03:19:14;;;;;;;0.30;0.30;;;;;;;26.44;40.48;99331.16;1835090;77;28130;-55
2023/05/09 03:22:02;;;;;;;0.15;0.15;;;;;;;26.45;40.47;99332.27;1840585;77;28146;-57
2023/05/09 03:24:52;;;;;;;0.20;0.20;;;;;;;26.48;40.51;99335.88;1803819;78;28245;-56
2023/05/09 03:27:41;;;;;;;0.60;0.30;;;;;;;26.44;40.44;99335.30;1819899;78;28263;-57
2023/05/09 03:30:31;;;;;;;0.20;0.20;;;;;;;26.46;40.61;99328.43;1819614;78;28815;-56
2023/05/09 03:33:19;;;;;;;0.30;0.30;;;;;;;26.48;40.56;99334.50;1822970;77;28227;-58
2023/05/09 03:36:09;;;;;;;0.20;0.20;;;;;;;26.49;40.54;99336.72;1820300;78;28187;-57
2023/05/09 03:38:59;;;;;;;0.10;0.10;;;;;;;26.44;40.46;99337.48;1812876;78;28212;-55
2023/05/09 03:41:48;;;;;;;0.10;0.10;;;;;;;26.46;40.52;99335.31;1886605;75;28138;-56
2023/05/09 03:44:37;;;;;;;0.20;0.20;;;;;;;26.47;40.60;99335.58;1883990;74;28071;-57
2023/05/09 03:47:25;;;;;;;0.20;0.20;;;;;;;26.46;40.63;99324.84;1911319;74;28151;-56
2023/05/09 03:50:14;;;;;;;0.08;0.08;;;;;;;26.45;40.58;99330.88;1882558;75;28181;-56
2023/05/09 03:53:03;;;;;;;0.20;0.20;;;;;;;26.47;40.51;99323.72;1851456;77;28138;-57
2023/05/09 03:55:52;;;;;;;0.20;0.20;;;;;;;26.44;40.54;99325.08;1845797;77;28205;-55
2023/05/09 03:58:41;;;;;;;0.13;0.13;;;;;;;26.44;40.48;99330.59;1821177;77;28306;-56
2023/05/09 04:01:32;;;;;;;0.20;0.20;;;;;;;26.46;40.51;99338.61;1796049;78;28282;-57
2023/05/09 04:04:21;;;;;;;1.10;0.23;;;;;;;26.45;40.54;99339.69;1823511;77;28271;-56
2023/05/09 04:07:10;;;;;;;0.00;0.00;;;;;;;26.44;40.43;99337.48;1817609;78;28325;-56
2023/05/09 04:09:58;;;;;;;0.20;0.20;;;;;;;26.44;40.47;99333.34;1876628;75;28115;-56
2023/05/09 04:12:47;;;;;;;1.80;0.10;;;;;;;26.42;40.50;99331.98;1876213;75;28138;-56
2023/05/09 04:15:37;;;;;;;0.10;0.10;;;;;;;26.45;40.60;99327.30;1895362;74;28328;-56
2023/05/09 04:18:26;;;;;;;0.10;0.10;;;;;;;26.46;40.47;99324.30;1837221;77;32204;-56
2023/05/09 04:21:14;;;;;;;0.20;0.20;;;;;;;26.40;40.55;99323.13;1809536;78;28118;-57
2023/05/09 04:24:03;;;;;;;0.20;0.20;;;;;;;26.39;40.57;99322.31;1799345;78;28299;-57
2023/05/09 04:26:53;;;;;;;0.30;0.30;;;;;;;26.41;40.66;99326.17;1853909;77;28296;-57
2023/05/09 04:29:43;;;;;;;0.30;0.30;;;;;;;26.34;40.11;99326.40;1839366;77;28185;-56
2023/05/09 04:32:32;;;;;;;0.20;0.20;;;;;;;26.37;39.93;99327.80;1807111;78;28208;-59
2023/05/09 04:35:22;;;;;;;0.20;0.20;;;;;;;26.40;40.02;99334.97;1849329;77;28327;-57
2023/05/09 04:38:11;;;;;;;0.20;0.20;;;;;;;26.38;40.38;99326.15;1843369;75;28350;-57
2023/05/09 04:41:00;;;;;;;0.10;0.10;;;;;;;26.38;40.42;99326.69;1864293;75;28207;-55
2023/05/09 04:43:49;;;;;;;0.10;0.10;;;;;;;26.42;40.53;99329.22;1896691;74;28029;-58
2023/05/09 04:46:37;;;;;;;0.20;0.20;;;;;;;26.43;40.48;99323.98;1870562;76;28172;-55
2023/05/09 04:49:26;;;;;;;0.10;0.10;;;;;;;26.43;40.43;99328.95;1888836;75;28101;-57
2023/05/09 04:52:14;;;;;;;0.10;0.10;;;;;;;26.43;40.39;99328.11;1889886;75;28211;-57
2023/05/09 04:55:05;;;;;;;0.80;0.20;;;;;;;26.44;40.29;99333.34;1901050;75;28115;-57
2023/05/09 04:57:54;;;;;;;0.10;0.10;;;;;;;26.43;40.29;99327.57;1892524;75;28131;-58
2023/05/09 05:00:43;;;;;;;0.10;0.10;;;;;;;26.45;40.29;99325.92;1899253;75;28059;-55
2023/05/09 05:03:33;;;;;;;0.10;0.10;;;;;;;26.44;40.18;99320.14;1900958;75;28127;-57
2023/05/09 05:06:21;;;;;;;0.20;0.20;;;;;;;26.44;40.25;99316.02;1868421;76;28090;-57
2023/05/09 05:09:09;;;;;;;0.30;0.30;;;;;;;26.42;40.29;99317.63;1891265;75;28063;-55
2023/05/09 05:11:58;;;;;;;0.23;0.23;;;;;;;26.43;40.28;99321.22;1893457;75;28177;-58
2023/05/09 05:14:47;;;;;;;0.30;0.20;;;;;;;26.43;40.27;99321.22;1881823;75;28172;-57
2023/05/09 05:17:38;;;;;;;0.28;0.28;;;;;;;26.44;40.26;99322.90;1868742;76;28119;-57
2023/05/09 05:20:27;;;;;;;0.20;0.20;;;;;;;26.43;40.29;99319.84;1893185;75;28370;-58
2023/05/09 05:23:17;;;;;;;0.30;0.30;;;;;;;26.43;40.26;99315.17;1895197;75;28170;-57
2023/05/09 05:26:05;;;;;;;0.20;0.20;;;;;;;26.43;40.29;99316.55;1898145;75;28063;-56
2023/05/09 05:28:56;;;;;;;0.17;0.17;;;;;;;26.42;40.22;99322.34;1877176;75;28164;-57
2023/05/09 05:31:45;;;;;;;0.30;0.23;;;;;;;26.38;40.35;99322.55;1892939;75;28643;-57
2023/05/09 05:34:34;;;;;;;0.10;0.10;;;;;;;26.41;40.34;99321.50;1894117;75;28233;-56
2023/05/09 05:37:23;;;;;;;0.50;0.40;;;;;;;26.43;40.31;99315.72;1883723;75;28081;-59
2023/05/09 05:40:12;;;;;;;0.20;0.20;;;;;;;26.44;40.40;99314.63;1864811;76;31476;-56
2023/05/09 05:43:01;;;;;;;0.20;0.20;;;;;;;26.42;40.28;99315.45;1889896;75;28247;-58
2023/05/09 05:45:50;;;;;;;0.10;0.10;;;;;;;26.38;40.28;99321.18;1858332;76;28137;-58
2023/05/09 05:48:40;;;;;;;1.90;0.20;;;;;;;26.36;40.28;99316.48;1845911;77;28161;-58
2023/05/09 05:51:29;;;;;;;0.20;0.20;;;;;;;26.33;40.27;99315.63;1867532;76;28357;-54
2023/05/09 05:54:17;;;;;;;0.20;0.20;;;;;;;26.32;40.38;99312.61;1867239;76;28111;-56
2023/05/09 05:57:07;;;;;;;0.80;0.20;;;;;;;26.32;40.46;99315.36;1862830;74;28254;-56
2023/05/09 05:59:55;;;;;;;0.15;0.15;;;;;;;26.36;40.59;99306.84;1879225;76;28044;-57
2023/05/09 06:02:44;;;;;;;1.10;0.37;;;;;;;26.35;40.72;99313.47;1874093;76;28276;-55
2023/05/09 06:05:34;;;;;;;0.30;0.23;;;;;;;26.34;40.93;99310.42;1851739;76;28144;-56
2023/05/09 06:08:23;;;;;;;0.40;0.40;;;;;;;26.32;41.01;99305.72;1877927;76;28200;-54
2023/05/09 06:11:12;;;;;;;0.13;0.13;;;;;;;26.32;41.03;99301.05;1862348;76;28275;-54
2023/05/09 06:14:00;;;;;;;0.30;0.30;;;;;;;26.34;40.93;99305.74;1867326;76;28201;-56
2023/05/09 06:16:48;;;;;;;0.10;0.10;;;;;;;26.37;41.29;99303.02;1846357;77;28204;-55
2023/05/09 06:19:37;;;;;;;0.17;0.17;;;;;;;26.36;41.05;99295.83;1865547;76;28106;-53
2023/05/09 06:22:25;;;;;;;0.17;0.17;;;;;;;26.38;41.01;99292.27;1859433;76;28047;-55
2023/05/09 06:25:13;;;;;;;0.80;0.20;;;;;;;26.41;41.36;99289.83;1847605;76;28147;-55
2023/05/09 06:28:02;;;;;;;0.30;0.30;;;;;;;26.42;41.28;99287.91;1865508;76;28055;-55
2023/05/09 06:30:50;;;;;;;0.33;0.20;;;;;;;26.43;41.51;99283.50;1863059;76;28110;-52
2023/05/09 06:33:38;;;;;;;0.30;0.30;;;;;;;26.43;41.35;99274.40;1866663;76;28258;-54
2023/05/09 06:36:27;;;;;;;0.20;0.20;;;;;;;26.44;41.14;99271.94;1851816;76;28099;-56
2023/05/09 06:39:15;;;;;;;0.30;0.30;;;;;;;26.45;41.28;99270.28;1857031;76;28215;-53
2023/05/09 06:42:03;;;;;;;0.30;0.30;;;;;;;26.45;41.27;99268.08;1862879;76;28079;-54
2023/05/09 06:44:53;;;;;;;0.40;0.40;;;;;;;26.45;41.17;99261.19;1868334;76;28225;-55
2023/05/09 06:47:41;;;;;;;0.23;0.20;;;;;;;26.45;41.48;99262.02;1883590;74;28084;-54
2023/05/09 06:50:30;;;;;;;0.20;0.20;;;;;;;26.42;41.16;99257.61;1888573;75;28174;-55
2023/05/09 06:53:18;;;;;;;0.20;0.20;;;;;;;26.45;41.21;99252.92;1868870;76;35393;-52
2023/05/09 06:56:06;;;;;;;0.20;0.20;;;;;;;26.47;41.33;99246.59;1892139;75;28071;-54
2023/05/09 06:58:55;;;;;;;0.40;0.20;;;;;;;26.43;41.39;99241.34;1893787;75;28146;-56
2023/05/09 07:01:44;;;;;;;0.17;0.17;;;;;;;26.43;41.21;99244.94;1897483;75;28141;-51
2023/05/09 07:04:32;;;;;;;0.10;0.10;;;;;;;26.44;41.37;99238.89;1868787;76;34144;-56
2023/05/09 07:07:21;;;;;;;0.40;0.40;;;;;;;26.44;41.44;99230.63;1868773;76;28091;-55
2023/05/09 07:10:10;;;;;;;0.10;0.10;;;;;;;26.43;41.36;99229.79;1891946;75;28150;-55
2023/05/09 07:12:59;;;;;;;0.10;0.10;;;;;;;26.45;41.48;99225.38;1895921;75;28063;-55
2023/05/09 07:15:47;;;;;;;0.20;0.20;;;;;;;26.46;41.22;99224.30;1868539;76;28163;-55
2023/05/09 07:18:35;;;;;;;0.10;0.10;;;;;;;26.46;41.04;99218.25;1873124;75;28191;-56
2023/05/09 07:21:24;;;;;;;0.30;0.30;;;;;;;26.49;41.08;99212.75;1896797;75;28130;-56
2023/05/09 07:24:12;;;;;;;0.20;0.20;;;;;;;26.48;41.03;99206.41;1895927;75;28060;-56
2023/05/09 07:27:02;;;;;;;0.40;0.40;;;;;;;26.50;40.90;99208.89;1879685;75;28084;-56
2023/05/09 07:29:51;;;;;;;0.10;0.10;;;;;;;26.49;40.91;99210.00;1873821;75;28136;-56
2023/05/09 07:32:40;;;;;;;0.20;0.20;;;;;;;26.49;40.85;99207.25;1868479;76;30013;-55
2023/05/09 07:35:28;;;;;;;0.10;0.10;;;;;;;26.50;40.92;99195.11;1868707;76;28323;-52
2023/05/09 07:38:16;;;;;;;0.33;0.15;;;;;;;26.50;40.82;99195.95;1878348;75;28111;-55
2023/05/09 07:41:05;;;;;;;0.30;0.20;;;;;;;26.49;40.78;99179.13;1875642;75;28281;-56
2023/05/09 07:43:53;;;;;;;0.30;0.30;;;;;;;26.48;40.78;99171.98;1868286;76;28060;-56
2023/05/09 07:46:41;;;;;;;0.30;0.20;;;;;;;26.48;40.77;99169.22;1868929;76;28053;-56
2023/05/09 07:49:30;;;;;;;0.10;0.10;;;;;;;26.50;40.74;99160.14;1857046;76;28084;-55
2023/05/09 07:52:18;;;;;;;0.10;0.10;;;;;;;26.51;40.74;99154.89;1892435;75;28064;-54
2023/05/09 07:55:08;;;;;;;0.20;0.20;;;;;;;26.49;40.70;99157.09;1885523;75;28057;-54
2023/05/09 07:57:57;;;;;;;0.50;0.30;;;;;;;26.49;40.69;99155.71;1857140;77;28047;-56
2023/05/09 08:00:45;;;;;;;0.50;0.13;;;;;;;26.50;40.68;99149.13;1891492;75;28247;-53
2023/05/09 08:03:33;;;;;;;0.20;0.20;;;;;;;26.49;40.69;99147.45;1867927;75;28124;-55
2023/05/09 08:06:22;;;;;;;0.35;0.35;;;;;;;26.47;40.71;99146.89;1880144;75;28126;-55
2023/05/09 08:09:10;;;;;;;0.10;0.10;;;;;;;26.46;40.71;99140.28;1884053;75;28068;-58
2023/05/09 08:11:59;;;;;;;0.20;0.20;;;;;;;26.48;40.73;99140.30;1884625;75;28056;-56
2023/05/09 08:14:47;;;;;;;0.20;0.20;;;;;;;26.50;40.68;99142.77;1871029;75;28048;-54
2023/05/09 08:17:35;;;;;;;0.10;0.10;;;;;;;26.50;40.66;99124.33;1882850;75;28055;-55
2023/05/09 08:20:24;;;;;;;0.20;0.20;;;;;;;26.51;40.59;99119.66;1884190;75;28245;-54
2023/05/09 08:23:12;;;;;;;0.20;0.20;;;;;;;26.53;40.65;99117.45;1884497;75;28118;-55
2023/05/09 08:26:01;;;;;;;0.30;0.30;;;;;;;26.53;40.64;99113.32;1885846;75;32265;-53
2023/05/09 08:28:50;;;;;;;0.17;0.17;;;;;;;26.52;40.61;99108.90;1881812;75;28174;-55
2023/05/09 08:31:38;;;;;;;0.20;0.20;;;;;;;26.52;40.62;99112.48;1884063;75;28133;-56
2023/05/09 08:34:26;;;;;;;0.28;0.28;;;;;;;26.53;40.57;99107.81;1868424;75;28423;-55
2023/05/09 08:37:16;;;;;;;0.10;0.10;;;;;;;26.51;40.65;99104.50;1896719;75;28112;-53
2023/05/09 08:40:07;;;;;;;0.25;0.25;;;;;;;26.52;40.59;99093.75;1868336;75;28091;-54
2023/05/09 08:42:56;;;;;;;0.23;0.23;;;;;;;26.53;40.56;99085.77;1894875;75;28063;-52
2023/05/09 08:45:53;;;;;;;0.30;0.30;;;;;;;26.53;40.60;99081.10;1892646;75;28181;-56
2023/05/09 08:48:43;;;;;;;0.10;0.10;;;;;;;26.54;40.53;99077.77;1887332;75;28060;-57
2023/05/09 08:51:32;;;;;;;0.23;0.23;;;;;;;26.51;40.58;99070.87;1882010;75;28097;-56
2023/05/09 08:54:22;;;;;;;0.20;0.20;;;;;;;26.53;40.52;99062.36;1893742;75;28173;-56
2023/05/09 08:57:11;;;;;;;0.30;0.30;;;;;;;26.54;40.59;99059.32;1893778;75;28091;-56
2023/05/09 09:00:00;;;;;;;0.10;0.10;;;;;;;26.55;40.50;99058.78;1883770;75;28502;-53
2023/05/09 09:02:49;;;;;;;0.20;0.20;;;;;;;26.54;40.52;99041.96;1869228;76;28115;-53
2023/05/09 09:05:39;;;;;;;0.10;0.10;;;;;;;26.55;40.51;99042.25;1888516;75;28659;-54
2023/05/09 09:08:29;;;;;;;0.20;0.20;;;;;;;26.54;40.51;99034.53;1893963;75;28134;-56
2023/05/09 09:11:18;;;;;;;0.20;0.20;;;;;;;26.55;40.46;99024.34;1869276;76;28093;-51
2023/05/09 09:14:11;;;;;;;0.10;0.10;;;;;;;26.56;40.46;99014.42;1867914;76;28196;-55
2023/05/09 09:17:00;;;;;;;0.20;0.20;;;;;;;26.57;40.41;99016.63;1838562;76;28264;-56
2023/05/09 09:19:51;;;;;;;0.10;0.10;;;;;;;26.57;40.43;99005.61;1873849;75;28040;-54
2023/05/09 09:22:42;;;;;;;0.10;0.10;;;;;;;26.56;40.43;99002.02;1901376;75;28060;-55
2023/05/09 09:25:30;;;;;;;0.30;0.30;;;;;;;26.55;40.42;99000.94;1869122;76;28159;-57
2023/05/09 09:28:19;;;;;;;0.23;0.10;;;;;;;26.53;40.43;99002.59;1888029;75;28181;-57
2023/05/09 09:31:23;;;;;;;0.20;0.20;;;;;;;26.54;40.41;98992.38;1880283;75;28117;-53
2023/05/09 09:34:12;;;;;;;0.10;0.10;;;;;;;26.54;40.44;98995.97;1887459;75;28132;-52
2023/05/09 09:37:01;;;;;;;0.20;0.20;;;;;;;26.50;40.53;98989.90;1868991;76;28173;-55
2023/05/09 09:39:56;;;;;;;0.20;0.20;;;;;;;26.50;40.49;98986.60;1895349;75;28120;-52
2023/05/09 09:42:47;;;;;;;0.20;0.20;;;;;;;26.52;40.45;98985.77;1898086;75;28092;-57
2023/05/09 09:45:37;;;;;;;0.60;0.20;;;;;;;26.54;40.50;98984.11;1896833;75;28068;-54
2023/05/09 09:48:28;;;;;;;0.20;0.20;;;;;;;26.52;40.45;98981.64;1882750;75;28201;-54
2023/05/09 09:51:17;;;;;;;1.42;0.17;;;;;;;26.51;40.46;98968.95;1898263;75;28080;-56
2023/05/09 09:54:08;;;;;;;0.15;0.15;;;;;;;26.54;40.46;98966.20;1898034;75;28106;-51
2023/05/09 09:56:56;;;;;;;0.13;0.13;;;;;;;26.53;40.46;98957.69;1896963;75;28072;-52
2023/05/09 09:59:47;;;;;;;0.10;0.10;;;;;;;26.53;40.44;98944.74;1882661;75;28060;-51
2023/05/09 10:02:37;;;;;;;0.20;0.20;;;;;;;26.53;40.46;98937.02;1892968;75;28060;-56
2023/05/09 10:05:29;;;;;;;0.30;0.30;;;;;;;26.54;40.43;98934.53;1872000;75;28115;-54
2023/05/09 10:08:18;;;;;;;0.20;0.20;;;;;;;26.54;40.44;98925.72;1894104;75;28103;-55
2023/05/09 10:11:06;;;;;;;0.20;0.20;;;;;;;26.54;40.45;98917.45;1869113;76;34022;-54
2023/05/09 10:13:54;;;;;;;0.10;0.10;;;;;;;26.56;40.40;98919.92;1869226;76;28095;-55
2023/05/09 10:16:44;;;;;;;0.20;0.20;;;;;;;26.55;40.41;98912.78;1892856;75;28056;-55
2023/05/09 10:19:33;;;;;;;0.13;0.13;;;;;;;26.56;40.41;98908.91;1894895;75;28096;-52
2023/05/09 10:22:22;;;;;;;0.10;0.10;;;;;;;26.55;40.38;98905.89;1869019;76;28100;-53
2023/05/09 10:25:22;;;;;;;0.10;0.10;;;;;;;26.55;40.38;98910.86;1875593;75;28091;-57
2023/05/09 10:28:12;;;;;;;0.10;0.10;;;;;;;26.57;40.35;98901.77;1879980;75;28231;-56
2023/05/09 10:31:28;;;;;;;0.10;0.10;;;;;;;26.55;40.32;98902.59;1894668;75;28297;-54
2023/05/09 10:34:19;;;;;;;0.20;0.20;;;;;;;26.57;40.36;98899.55;1889858;75;28514;-55
2023/05/09 10:37:09;;;;;;;0.10;0.10;;;;;;;26.53;40.42;98895.70;1883542;75;28070;-55
2023/05/09 10:39:59;;;;;;;0.10;0.10;;;;;;;26.54;40.43;98889.08;1870293;75;28746;-51
2023/05/09 10:42:48;;;;;;;0.08;0.08;;;;;;;26.55;40.39;98883.86;1871138;75;28248;-54
2023/05/09 10:45:37;;;;;;;0.20;0.20;;;;;;;26.57;40.35;98877.52;1896750;75;28150;-50
2023/05/09 10:48:26;;;;;;;0.50;0.23;;;;;;;26.57;40.31;98876.14;1869071;76;28087;-52
2023/05/09 10:51:15;;;;;;;0.30;0.28;;;;;;;26.58;40.24;98868.16;1891127;75;28087;-53
2023/05/09 10:54:06;;;;;;;0.10;0.10;;;;;;;26.57;40.29;98858.23;1877249;75;28067;-57
2023/05/09 10:56:55;;;;;;;0.08;0.08;;;;;;;26.61;40.16;98862.08;1888716;75;31967;-55
2023/05/09 10:59:45;;;;;;;0.23;0.23;;;;;;;26.59;40.15;98849.97;1869200;76;28181;-57
2023/05/09 11:02:33;;;;;;;0.30;0.10;;;;;;;26.62;40.14;98840.33;1891048;75;28170;-54
2023/05/09 11:05:22;;;;;;;0.20;0.20;;;;;;;26.60;40.05;98844.75;1879901;75;28154;-56
2023/05/09 11:08:22;;;;;;;0.30;0.30;;;;;;;26.59;40.08;98840.88;1883662;75;29172;-53
2023/05/09 11:11:13;;;;;;;0.20;0.20;;;;;;;26.61;40.11;98836.74;1869292;76;28099;-54
2023/05/09 11:14:01;;;;;;;0.23;0.23;;;;;;;26.58;40.07;98831.77;1878001;75;28056;-55
2023/05/09 11:17:07;;;;;;;0.30;0.30;;;;;;;26.62;40.00;98821.88;1893801;75;32144;-54
2023/05/09 11:20:00;;;;;;;0.20;0.20;;;;;;;26.62;39.91;98814.99;1894100;75;28060;-56
2023/05/09 11:22:52;;;;;;;0.20;0.20;;;;;;;26.62;39.90;98806.73;1895214;75;28051;-55
2023/05/09 11:25:40;;;;;;;0.30;0.30;;;;;;;26.61;39.95;98802.84;1869315;76;28108;-56
2023/05/09 11:28:30;;;;;;;0.40;0.40;;;;;;;26.60;39.81;98795.70;1889344;75;28470;-56
2023/05/09 11:31:19;;;;;;;0.23;0.23;;;;;;;26.61;39.84;98793.20;1879712;75;28040;-55
2023/05/09 11:34:09;;;;;;;0.20;0.20;;;;;;;26.60;39.92;98788.27;1895315;75;28193;-55
2023/05/09 11:37:12;;;;;;;0.37;0.37;;;;;;;26.61;39.82;98786.32;1869268;76;28255;-52
2023/05/09 11:40:05;;;;;;;0.37;0.37;;;;;;;26.62;39.80;98795.70;1869330;76;28374;-56
2023/05/09 11:42:55;;;;;;;0.20;0.20;;;;;;;26.58;39.84;98783.57;1887031;75;28080;-56
2023/05/09 11:45:46;;;;;;;0.30;0.30;;;;;;;26.61;39.81;98778.06;1894277;75;28138;-53
2023/05/09 11:48:41;;;;;;;0.30;0.30;;;;;;;26.59;39.67;98780.27;1889717;75;28137;-54
2023/05/09 11:51:29;;;;;;;0.40;0.40;;;;;;;26.60;39.65;98779.18;1870347;76;28056;-56
2023/05/09 11:54:18;;;;;;;1.50;0.28;;;;;;;26.57;39.59;98773.67;1875779;76;28124;-53
2023/05/09 11:57:07;;;;;;;0.30;0.30;;;;;;;26.59;39.58;98784.40;1877463;75;28075;-55
2023/05/09 11:59:56;;;;;;;0.30;0.30;;;;;;;26.59;39.61;98794.05;1874573;75;28124;-53
2023/05/09 12:02:46;;;;;;;0.70;0.45;;;;;;;26.60;39.58;98786.90;1868752;75;28130;-50
2023/05/09 12:05:36;;;;;;;0.20;0.20;;;;;;;26.58;39.58;98802.85;1865442;75;28184;-54
2023/05/09 12:08:29;;;;;;;0.23;0.23;;;;;;;26.60;39.57;98799.84;1865992;75;28081;-56
2023/05/09 12:11:17;;;;;;;0.17;0.17;;;;;;;26.59;39.55;98811.41;1866831;76;28048;-55
2023/05/09 12:14:05;;;;;;;0.37;0.37;;;;;;;26.56;39.54;98821.59;1806413;79;28360;-52
2023/05/09 12:16:54;;;;;;;0.20;0.20;;;;;;;26.57;39.51;98815.53;1870847;76;28114;-54
2023/05/09 12:19:44;;;;;;;0.33;0.33;;;;;;;26.57;39.41;98822.42;1875563;75;28056;-53
2023/05/09 12:22:33;;;;;;;0.25;0.25;;;;;;;26.59;39.38;98826.55;1882980;75;28568;-55
2023/05/09 12:25:23;;;;;;;0.25;0.25;;;;;;;26.56;39.41;98826.27;1861213;76;28092;-56
2023/05/09 12:28:11;;;;;;;0.40;0.40;;;;;;;26.56;39.41;98822.14;1878484;75;28069;-55
2023/05/09 12:31:00;;;;;;;0.30;0.30;;;;;;;26.55;39.42;98820.50;1876503;75;28104;-55
2023/05/09 12:33:49;;;;;;;0.30;0.30;;;;;;;26.58;39.46;98824.09;1854933;77;28255;-53
2023/05/09 12:36:37;;;;;;;0.30;0.30;;;;;;;26.56;39.43;98822.97;1878059;75;28058;-54
2023/05/09 12:39:26;;;;;;;0.20;0.20;;;;;;;26.56;39.45;98820.76;1877497;75;28096;-55
2023/05/09 12:42:15;;;;;;;0.20;0.20;;;;;;;26.58;39.44;98825.47;1854943;77;28085;-56
2023/05/09 12:45:06;;;;;;;0.30;0.30;;;;;;;26.55;39.52;98819.95;1868392;75;28186;-53
2023/05/09 12:47:56;;;;;;;0.20;0.20;;;;;;;26.56;39.54;98827.64;1856941;75;28147;-56
2023/05/09 12:50:47;;;;;;;0.15;0.15;;;;;;;26.56;39.52;98830.39;1854767;75;28164;-53
2023/05/09 12:53:41;;;;;;;0.20;0.20;;;;;;;26.54;39.54;98837.57;1874628;75;28238;-53
2023/05/09 12:56:32;;;;;;;0.30;0.30;;;;;;;26.55;39.56;98835.65;1855379;75;28133;-53
2023/05/09 12:59:22;;;;;;;0.20;0.20;;;;;;;26.54;39.57;98836.73;1883319;75;28052;-56
2023/05/09 13:02:11;;;;;;;0.20;0.20;;;;;;;26.54;39.62;98830.69;1901342;75;28099;-55
2023/05/09 13:05:14;;;;;;;0.30;0.30;;;;;;;26.54;39.62;98833.98;1870504;75;28177;-54
2023/05/09 13:08:02;;;;;;;0.20;0.20;;;;;;;26.55;39.59;98837.86;1868607;76;28151;-55
2023/05/09 13:10:51;;;;;;;0.45;0.35;;;;;;;26.53;39.58;98844.20;1898156;75;28130;-56
2023/05/09 13:13:39;;;;;;;0.28;0.28;;;;;;;26.55;39.61;98837.03;1886253;75;28188;-55
2023/05/09 13:16:28;;;;;;;0.10;0.10;;;;;;;26.53;39.62;98846.95;1896578;75;28079;-54
2023/05/09 13:19:16;;;;;;;0.20;0.20;;;;;;;26.54;39.60;98847.76;1895725;75;28159;-57